Americana — A8UZ5 — position and weather

sailwx.info

Track history (hours):
 
Tides and Currents Weather Stations Pressure Air Temp Water Temp Dewpoint Dewpoint Depression Visibility Wind Speed Wind Dir Waves Ship Positions

Americana

Last reported at 2017-Mar-23 17:28 UTC. Time now 2017-Mar-26 15:21 UTC.
Position N 01°26' E 104°46'.

Length 229 m; draft 7.1 m.

Type: Cargo ship. MMSI: 636014578.

Date/timePositionNaut miles runAvg speedWind from/ knotsBaromVisibWave heightAir tempDewpointWater temp
2017-Mar-23 17:28N 01°26' E 104°46'  
2017-Mar-19 02:07N 01°15' E 104°04'3 4.8
2017-Mar-19 01:33N 01°14' E 104°02'5 4.6
2017-Mar-19 00:33N 01°14' E 103°57'7 7.2
2017-Mar-18 23:33N 01°11' E 103°51'7 7.2
2017-Mar-18 22:34N 01°07' E 103°45'7 7.1
2017-Mar-18 21:34N 01°03' E 103°39'7 6.5
2017-Mar-18 20:34N 01°06' E 103°33'7 7.1
2017-Mar-18 19:33N 01°09' E 103°27'9 8.4
2017-Mar-18 18:32N 01°15' E 103°20'3811.1
2017-Mar-18 15:04N 01°37' E 102°49'610.6
2017-Mar-18 14:32N 01°40' E 102°44'1110.6
2017-Mar-18 13:32N 01°44' E 102°34'1210.6
2017-Mar-18 12:24N 01°49' E 102°23'  
Track history (hours):
 
Tides and Currents Weather Stations Pressure Air Temp Water Temp Dewpoint Dewpoint Depression Visibility Wind Speed Wind Dir Waves Ship Positions

Americana

Last reported at 2017-Mar-23 17:28 UTC. Time now 2017-Mar-26 15:21 UTC.
Position N 01°26' E 104°46'.

Length 229 m; draft 7.1 m.

Type: Cargo ship. MMSI: 636014578.

Date/timePositionNaut miles runAvg speedWind from/ knotsBaromVisibWave heightAir tempDewpointWater temp
2017-Mar-23 17:28N 01°26' E 104°46'  
2017-Mar-19 02:07N 01°15' E 104°04'3 4.8
2017-Mar-19 01:33N 01°14' E 104°02'5 4.6
2017-Mar-19 00:33N 01°14' E 103°57'7 7.2
2017-Mar-18 23:33N 01°11' E 103°51'7 7.2
2017-Mar-18 22:34N 01°07' E 103°45'7 7.1
2017-Mar-18 21:34N 01°03' E 103°39'7 6.5
2017-Mar-18 20:34N 01°06' E 103°33'7 7.1
2017-Mar-18 19:33N 01°09' E 103°27'9 8.4
2017-Mar-18 18:32N 01°15' E 103°20'3811.1
2017-Mar-18 15:04N 01°37' E 102°49'610.6
2017-Mar-18 14:32N 01°40' E 102°44'1110.6
2017-Mar-18 13:32N 01°44' E 102°34'1210.6
2017-Mar-18 12:24N 01°49' E 102°23'  

Dump ship's entire track history